createdAt,value
2019-04-16T00:01:57.544Z,4.17
2019-04-16T00:04:53.649Z,4.15
2019-04-16T00:07:38.936Z,4.13
2019-04-16T00:10:14.809Z,4.15
2019-04-16T00:13:05.378Z,4.15
2019-04-16T00:15:35.706Z,4.17
2019-04-16T00:18:06.187Z,4.14
2019-04-16T00:20:39.975Z,4.11
2019-04-16T00:23:17.240Z,4.12
2019-04-16T00:25:47.868Z,4.10
2019-04-16T00:28:16.610Z,4.08
2019-04-16T00:30:45.363Z,4.05
2019-04-16T00:33:14.074Z,3.99
2019-04-16T00:35:46.457Z,3.90
2019-04-16T00:38:13.848Z,3.86
2019-04-16T00:40:43.981Z,3.83
2019-04-16T00:43:13.896Z,3.76
2019-04-16T00:45:43.828Z,3.69
2019-04-16T00:48:12.755Z,3.67
2019-04-16T00:50:41.817Z,3.62
2019-04-16T00:53:10.784Z,3.69
2019-04-16T00:55:42.328Z,3.65
2019-04-16T00:58:19.446Z,3.55
2019-04-16T01:00:50.971Z,3.50
2019-04-16T01:03:19.531Z,3.39
2019-04-16T01:05:49.488Z,3.30
2019-04-16T01:08:18.140Z,3.21
2019-04-16T01:10:48.870Z,3.11
2019-04-16T01:13:21.731Z,2.97
2019-04-16T01:15:51.193Z,2.83
2019-04-16T01:18:19.739Z,2.81
2019-04-16T01:20:49.061Z,2.82
2019-04-16T01:23:18.487Z,2.77
2019-04-16T01:25:47.121Z,2.78
2019-04-16T01:28:20.430Z,2.75
2019-04-16T01:31:08.789Z,2.65
2019-04-16T01:34:07.175Z,2.70
2019-04-16T01:36:47.944Z,2.67
2019-04-16T01:39:18.479Z,2.55
2019-04-16T01:41:50.327Z,2.56
2019-04-16T01:44:18.880Z,2.57
2019-04-16T01:46:47.450Z,2.50
2019-04-16T01:49:19.219Z,2.51
2019-04-16T01:51:48.200Z,2.56
2019-04-16T01:54:16.821Z,2.50
2019-04-16T01:56:47.378Z,2.50
2019-04-16T01:59:15.925Z,2.53
2019-04-16T02:01:44.497Z,2.50
2019-04-16T02:04:19.515Z,2.42
2019-04-16T02:06:45.028Z,2.41
2019-04-16T02:09:22.251Z,2.25
2019-04-16T02:11:44.490Z,2.23
2019-04-16T02:14:14.563Z,2.21
2019-04-16T02:16:43.364Z,2.21
2019-04-16T02:19:12.374Z,2.22
2019-04-16T02:21:42.071Z,2.25
2019-04-16T02:24:11.099Z,2.31
2019-04-16T02:26:39.843Z,2.31
2019-04-16T02:29:09.975Z,2.21
2019-04-16T02:31:38.721Z,2.24
2019-04-16T02:34:07.808Z,2.25
2019-04-16T02:36:36.996Z,2.07
2019-04-16T02:39:07.280Z,2.02
2019-04-16T02:41:35.881Z,2.05
2019-04-16T02:44:04.717Z,1.96
2019-04-16T02:46:34.788Z,1.93
2019-04-16T02:49:03.504Z,1.96
2019-04-16T02:51:41.571Z,1.94
2019-04-16T02:54:34.581Z,1.91
2019-04-16T02:57:25.757Z,1.82
2019-04-16T02:59:50.240Z,1.82
2019-04-16T03:02:43.752Z,1.95
2019-04-16T03:05:34.403Z,1.99
2019-04-16T03:08:04.605Z,1.95
2019-04-16T03:10:34.643Z,1.84
2019-04-16T03:13:05.442Z,1.74
2019-04-16T03:15:53.304Z,1.83
2019-04-16T03:18:26.474Z,1.77
2019-04-16T03:20:55.639Z,1.88
2019-04-16T03:23:25.713Z,1.99
2019-04-16T03:25:54.409Z,1.96
2019-04-16T03:28:27.334Z,1.96
2019-04-16T03:30:54.390Z,1.85
2019-04-16T03:33:25.326Z,1.84
2019-04-16T03:35:57.793Z,1.76
2019-04-16T03:38:25.836Z,1.63
2019-04-16T03:40:56.095Z,1.67
2019-04-16T03:43:25.461Z,1.56
2019-04-16T03:45:54.020Z,1.54
2019-04-16T03:48:23.445Z,1.50
2019-04-16T03:50:52.911Z,1.44
2019-04-16T03:53:21.844Z,1.44
2019-04-16T03:55:57.889Z,1.37
2019-04-16T03:58:22.824Z,1.35
2019-04-16T04:00:51.549Z,1.39
2019-04-16T04:03:20.450Z,1.26
2019-04-16T04:05:55.905Z,1.25
2019-04-16T04:08:25.008Z,1.32
2019-04-16T04:10:56.775Z,1.23
2019-04-16T04:13:25.324Z,1.19
2019-04-16T04:15:55.146Z,1.18
2019-04-16T04:18:24.037Z,1.20
2019-04-16T04:20:53.110Z,1.09
2019-04-16T04:23:25.511Z,1.06
2019-04-16T04:25:53.538Z,1.05
2019-04-16T04:28:23.832Z,1.06
2019-04-16T04:30:52.785Z,1.05
2019-04-16T04:33:42.763Z,0.96
2019-04-16T04:36:10.516Z,0.97
2019-04-16T04:38:39.558Z,1.02
2019-04-16T04:41:08.604Z,1.05
2019-04-16T04:43:38.904Z,1.06
2019-04-16T04:46:12.535Z,1.14
2019-04-16T04:48:40.022Z,1.09
2019-04-16T04:51:09.128Z,1.28
2019-04-16T04:53:37.752Z,1.93
2019-04-16T04:56:06.474Z,2.34
2019-04-16T04:58:35.044Z,2.86
2019-04-16T05:01:03.667Z,3.23
2019-04-16T05:03:52.791Z,3.39
2019-04-16T05:06:27.858Z,3.60
2019-04-16T05:08:57.596Z,3.70
2019-04-16T05:11:25.715Z,4.19
2019-04-16T05:13:56.439Z,4.44
2019-04-16T05:16:25.712Z,4.63
2019-04-16T05:18:56.116Z,4.17
2019-04-16T05:21:26.729Z,3.90
2019-04-16T05:23:57.504Z,3.66
2019-04-16T05:26:26.460Z,3.35
2019-04-16T05:28:56.840Z,3.26
2019-04-16T05:31:31.094Z,3.31
2019-04-16T05:34:02.313Z,3.34
2019-04-16T05:36:32.913Z,3.41
2019-04-16T05:39:03.643Z,3.49
2019-04-16T05:41:32.296Z,3.58
2019-04-16T05:44:02.115Z,3.72
2019-04-16T05:46:30.753Z,3.73
2019-04-16T05:48:59.706Z,3.91
2019-04-16T05:51:31.370Z,3.83
2019-04-16T05:54:01.474Z,4.13
2019-04-16T05:56:38.323Z,4.29
2019-04-16T05:59:06.888Z,4.48
2019-04-16T06:01:49.218Z,4.61
2019-04-16T06:04:18.142Z,4.82
2019-04-16T06:06:48.743Z,5.10
2019-04-16T06:09:17.655Z,4.95
2019-04-16T06:11:47.561Z,5.03
2019-04-16T06:14:31.219Z,4.90
2019-04-16T06:17:19.213Z,5.16
2019-04-16T06:20:03.411Z,5.44
2019-04-16T06:22:53.970Z,5.69
2019-04-16T06:25:28.463Z,5.85
2019-04-16T06:28:22.024Z,6.03
2019-04-16T06:31:05.077Z,6.17
2019-04-16T06:33:41.405Z,6.12
2019-04-16T06:36:25.678Z,6.31
2019-04-16T06:39:18.158Z,6.41
2019-04-16T06:42:02.556Z,6.62
2019-04-16T06:44:34.979Z,6.67
2019-04-16T06:47:23.697Z,6.75
2019-04-16T06:50:12.924Z,6.83
2019-04-16T06:53:01.116Z,6.92
2019-04-16T06:55:42.794Z,7.51
2019-04-16T06:58:18.851Z,7.80
2019-04-16T07:39:39.759Z,8.69
2019-04-16T07:42:15.710Z,8.66
2019-04-16T07:45:00.459Z,8.74
2019-04-16T07:47:53.690Z,8.71
2019-04-16T07:50:35.822Z,8.79
2019-04-16T07:53:14.293Z,8.92
2019-04-16T07:55:50.823Z,8.99
2019-04-16T07:58:19.975Z,9.13
2019-04-16T08:00:50.741Z,9.16
2019-04-16T08:03:23.634Z,9.21
2019-04-16T08:05:52.764Z,9.24
2019-04-16T08:08:24.608Z,9.31
2019-04-16T08:10:54.576Z,9.49
2019-04-16T08:13:33.363Z,9.79
2019-04-16T08:15:58.684Z,9.79
2019-04-16T08:18:31.982Z,9.86
2019-04-16T08:21:10.206Z,10.00
2019-04-16T08:23:42.561Z,10.09
2019-04-16T08:26:13.944Z,10.05
2019-04-16T08:28:42.581Z,9.98
2019-04-16T08:31:16.002Z,10.25
2019-04-16T08:33:44.896Z,10.25
2019-04-16T08:36:15.231Z,10.44
2019-04-16T08:38:43.953Z,10.60
2019-04-16T08:41:13.380Z,10.63
2019-04-16T08:43:42.006Z,10.69
2019-04-16T08:46:11.568Z,10.91
2019-04-16T08:48:41.217Z,10.95
2019-04-16T08:51:10.092Z,10.86
2019-04-16T08:53:38.818Z,11.06
2019-04-16T08:56:07.386Z,11.27
2019-04-16T08:58:38.399Z,11.37
2019-04-16T09:01:08.612Z,11.41
2019-04-16T09:03:39.356Z,11.43
2019-04-16T09:06:13.013Z,11.46
2019-04-16T09:08:52.822Z,11.43
2019-04-16T09:11:23.415Z,11.36
2019-04-16T09:13:53.353Z,11.46
2019-04-16T09:16:22.448Z,11.45
2019-04-16T09:18:59.022Z,11.55
2019-04-16T09:21:28.185Z,11.61
2019-04-16T09:24:14.345Z,11.83
2019-04-16T09:26:52.738Z,11.82
2019-04-16T09:29:45.358Z,12.01
2019-04-16T09:32:33.218Z,12.08
2019-04-16T09:35:18.298Z,11.93
2019-04-16T09:38:13.376Z,11.95
2019-04-16T09:40:57.688Z,11.96
2019-04-16T09:43:28.402Z,12.11
2019-04-16T09:46:09.678Z,12.29
2019-04-16T09:48:27.570Z,12.38
2019-04-16T09:50:57.836Z,12.46
2019-04-16T09:53:33.429Z,12.56
2019-04-16T09:56:01.097Z,12.67
2019-04-16T09:58:29.647Z,12.74
2019-04-16T10:01:04.423Z,12.91
2019-04-16T10:03:36.972Z,13.06
2019-04-16T10:06:05.972Z,13.31
2019-04-16T10:08:34.618Z,13.25
2019-04-16T10:11:06.041Z,13.28
2019-04-16T10:13:36.089Z,13.45
2019-04-16T10:16:07.137Z,13.48
2019-04-16T10:18:36.353Z,13.64
2019-04-16T10:21:06.198Z,13.87
2019-04-16T10:24:00.875Z,14.15
2019-04-16T10:26:30.127Z,14.23
2019-04-16T10:29:00.025Z,14.41
2019-04-16T10:31:28.575Z,14.29
2019-04-16T10:33:57.131Z,14.45
2019-04-16T10:36:25.887Z,14.42
2019-04-16T10:39:00.950Z,14.43
2019-04-16T10:41:44.340Z,14.42
2019-04-16T10:44:37.777Z,14.40
2019-04-16T10:47:31.591Z,14.46
2019-04-16T10:50:22.206Z,14.44
2019-04-16T10:53:15.664Z,14.58
2019-04-16T10:56:02.029Z,14.86
2019-04-16T10:58:48.374Z,14.67
2019-04-16T11:01:42.223Z,14.76
2019-04-16T11:04:43.970Z,14.98
2019-04-16T11:07:15.978Z,15.17
2019-04-16T11:09:44.586Z,15.09
2019-04-16T11:12:13.156Z,15.01
2019-04-16T11:14:41.661Z,15.03
2019-04-16T11:17:10.416Z,15.22
2019-04-16T11:19:38.974Z,15.35
2019-04-16T11:22:07.493Z,15.58
2019-04-16T11:24:37.636Z,15.42
2019-04-16T11:27:06.490Z,15.29
2019-04-16T11:29:35.114Z,15.36
2019-04-16T11:32:03.709Z,15.52
2019-04-16T11:34:32.625Z,15.51
2019-04-16T11:37:07.488Z,15.62
2019-04-16T11:39:31.614Z,15.66
2019-04-16T11:42:00.361Z,15.76
2019-04-16T11:44:28.958Z,15.82
2019-04-16T11:46:57.581Z,15.86
2019-04-16T11:49:26.244Z,15.93
2019-04-16T11:51:54.810Z,16.19
2019-04-16T11:54:24.778Z,16.39
2019-04-16T11:56:55.568Z,16.31
2019-04-16T11:59:23.955Z,16.47
2019-04-16T12:02:03.194Z,16.64
2019-04-16T12:04:57.193Z,16.56
2019-04-16T12:07:40.745Z,16.48
2019-04-16T12:10:29.393Z,16.54
2019-04-16T12:13:14.856Z,16.85
2019-04-16T12:15:59.538Z,16.68
2019-04-16T12:18:58.147Z,16.72
2019-04-16T12:21:48.556Z,16.95
2019-04-16T12:25:07.589Z,17.13
2019-04-16T12:27:51.880Z,16.97
2019-04-16T12:30:38.840Z,16.95
2019-04-16T12:33:17.539Z,17.05
2019-04-16T12:36:13.242Z,17.21
2019-04-16T12:39:05.658Z,17.20
2019-04-16T12:41:59.906Z,16.96
2019-04-16T12:44:45.538Z,16.81
2019-04-16T12:47:41.004Z,16.88
2019-04-16T12:50:51.799Z,16.76
2019-04-16T12:53:35.880Z,16.85
2019-04-16T12:56:26.557Z,16.97
2019-04-16T12:59:03.224Z,17.15
2019-04-16T13:01:50.809Z,17.57
2019-04-16T13:04:27.725Z,17.50
2019-04-16T13:07:03.162Z,17.62
2019-04-16T13:10:00.401Z,17.74
2019-04-16T13:12:37.643Z,17.82
2019-04-16T13:15:24.357Z,17.75
2019-04-16T13:18:06.215Z,17.93
2019-04-16T13:20:57.250Z,18.18
2019-04-16T13:23:42.204Z,18.12
2019-04-16T13:26:24.824Z,18.15
2019-04-16T13:28:55.603Z,17.98
2019-04-16T13:31:25.882Z,17.78
2019-04-16T13:34:00.072Z,17.53
2019-04-16T13:36:30.461Z,17.74
2019-04-16T13:39:18.066Z,17.75
2019-04-16T13:41:46.651Z,17.82
2019-04-16T13:44:17.243Z,17.98
2019-04-16T13:46:47.313Z,17.96
2019-04-16T13:49:24.550Z,17.91
2019-04-16T13:51:57.430Z,17.95
2019-04-16T13:54:34.395Z,18.08
2019-04-16T13:57:06.339Z,18.03
2019-04-16T14:00:02.982Z,17.80
2019-04-16T14:02:51.082Z,17.85
2019-04-16T14:05:20.675Z,18.13
2019-04-16T14:07:49.712Z,18.37
2019-04-16T14:10:18.288Z,18.38
2019-04-16T14:12:48.201Z,18.36
2019-04-16T14:15:31.142Z,18.32
2019-04-16T14:17:52.981Z,18.41
2019-04-16T14:20:18.877Z,18.40
2019-04-16T14:22:53.279Z,18.38
2019-04-16T14:25:21.395Z,18.44
2019-04-16T14:27:50.264Z,18.26
2019-04-16T14:30:22.277Z,18.08
2019-04-16T14:32:51.148Z,18.13
2019-04-16T14:35:32.834Z,18.22
2019-04-16T14:37:52.932Z,18.26
2019-04-16T14:40:22.494Z,18.36
2019-04-16T14:42:56.253Z,18.40
2019-04-16T14:45:25.044Z,18.10
2019-04-16T14:47:54.598Z,18.03
2019-04-16T14:50:24.463Z,18.05
2019-04-16T14:52:53.161Z,18.15
2019-04-16T14:55:59.256Z,18.03
2019-04-16T14:58:50.818Z,18.06
2019-04-16T15:01:50.211Z,18.26
2019-04-16T15:04:43.195Z,18.38
2019-04-16T15:07:31.511Z,18.31
2019-04-16T15:10:18.995Z,18.16
2019-04-16T15:12:54.552Z,18.03
2019-04-16T15:15:26.982Z,18.12
2019-04-16T15:18:26.479Z,18.18
2019-04-16T15:21:10.147Z,18.25
2019-04-16T15:24:00.579Z,18.28
2019-04-16T15:26:43.156Z,18.22
2019-04-16T15:29:16.964Z,17.97
2019-04-16T15:32:05.567Z,18.01
2019-04-16T15:34:42.826Z,17.64
2019-04-16T15:37:25.736Z,17.50
2019-04-16T15:39:59.605Z,17.56
2019-04-16T15:42:41.336Z,17.67
2019-04-16T15:45:16.796Z,17.78
2019-04-16T15:48:03.566Z,17.77
2019-04-16T15:50:38.473Z,17.68
2019-04-16T15:53:12.265Z,17.66
2019-04-16T15:55:48.303Z,17.72
2019-04-16T15:58:24.622Z,17.69
2019-04-16T16:01:21.173Z,17.61
2019-04-16T16:04:32.891Z,17.48
2019-04-16T16:07:08.725Z,17.47
2019-04-16T16:10:13.970Z,17.40
2019-04-16T16:12:41.741Z,17.47
2019-04-16T16:15:10.558Z,17.51
2019-04-16T16:17:41.273Z,17.52
2019-04-16T16:20:11.402Z,17.49
2019-04-16T16:22:40.268Z,17.44
2019-04-16T16:25:09.370Z,17.39
2019-04-16T16:27:41.689Z,17.42
2019-04-16T16:30:08.572Z,17.40
2019-04-16T16:32:37.481Z,17.38
2019-04-16T16:35:09.518Z,17.43
2019-04-16T16:37:38.090Z,17.36
2019-04-16T16:40:07.251Z,17.34
2019-04-16T16:42:35.850Z,17.35
2019-04-16T16:45:04.758Z,17.27
2019-04-16T16:47:39.498Z,17.17
2019-04-16T16:50:10.324Z,17.03
2019-04-16T16:53:06.963Z,17.02
2019-04-16T16:55:39.064Z,16.95
2019-04-16T16:58:34.541Z,16.84
2019-04-16T17:01:19.784Z,16.88
2019-04-16T17:03:59.652Z,16.94
2019-04-16T17:06:28.536Z,16.91
2019-04-16T17:08:57.129Z,16.96
2019-04-16T17:11:26.094Z,16.96
2019-04-16T17:13:54.767Z,16.91
2019-04-16T17:16:23.269Z,16.95
2019-04-16T17:18:51.844Z,16.97
2019-04-16T17:21:20.392Z,17.04
2019-04-16T17:23:48.991Z,17.04
2019-04-16T17:26:17.581Z,17.04
2019-04-16T17:28:46.171Z,17.01
2019-04-16T17:31:15.144Z,16.98
2019-04-16T17:33:43.713Z,16.82
2019-04-16T17:36:12.450Z,16.34
2019-04-16T17:38:41.035Z,15.89
2019-04-16T17:41:13.486Z,15.61
2019-04-16T17:44:03.117Z,15.37
2019-04-16T17:46:47.518Z,15.14
2019-04-16T17:49:38.287Z,14.96
2019-04-16T17:52:40.922Z,14.87
2019-04-16T17:55:22.562Z,14.69
2019-04-16T17:58:10.290Z,14.59
2019-04-16T18:00:56.313Z,14.51
2019-04-16T18:03:45.092Z,14.50
2019-04-16T18:06:20.159Z,14.46
2019-04-16T18:09:06.663Z,14.45
2019-04-16T18:11:54.278Z,14.46
2019-04-16T18:14:47.935Z,14.43
2019-04-16T18:17:26.968Z,14.33
2019-04-16T18:20:05.410Z,14.16
2019-04-16T18:22:41.966Z,14.14
2019-04-16T18:25:22.969Z,14.07
2019-04-16T18:27:57.488Z,13.82
2019-04-16T18:30:45.078Z,13.43
2019-04-16T18:33:35.317Z,13.08
2019-04-16T18:36:19.212Z,12.83
2019-04-16T18:39:08.297Z,12.60
2019-04-16T18:41:53.394Z,12.48
2019-04-16T18:44:44.420Z,12.34
2019-04-16T18:47:30.793Z,12.16
2019-04-16T18:50:05.390Z,12.02
2019-04-16T18:52:36.646Z,11.99
2019-04-16T18:55:04.267Z,11.96
2019-04-16T18:57:35.520Z,11.80
2019-04-16T19:00:08.496Z,11.68
2019-04-16T19:02:41.901Z,11.51
2019-04-16T19:05:07.524Z,11.44
2019-04-16T19:07:42.229Z,11.38
2019-04-16T19:10:10.886Z,11.20
2019-04-16T19:12:39.861Z,11.08
2019-04-16T19:15:08.864Z,11.00
2019-04-16T19:17:41.011Z,10.97
2019-04-16T19:20:09.568Z,10.88
2019-04-16T19:22:38.130Z,10.95
2019-04-16T19:25:09.174Z,10.93
2019-04-16T19:27:37.417Z,10.79
2019-04-16T19:30:07.100Z,10.79
2019-04-16T19:32:35.852Z,10.87
2019-04-16T19:35:09.898Z,10.77
2019-04-16T19:37:35.119Z,10.77
2019-04-16T19:40:06.880Z,10.73
2019-04-16T19:42:35.450Z,10.57
2019-04-16T19:45:04.066Z,10.40
2019-04-16T19:47:35.355Z,10.33
2019-04-16T19:50:03.310Z,10.28
2019-04-16T19:52:32.116Z,10.21
2019-04-16T19:55:00.704Z,10.06
2019-04-16T19:57:29.698Z,10.02
2019-04-16T19:59:58.462Z,9.97
2019-04-16T20:02:27.019Z,10.15
2019-04-16T20:04:55.602Z,10.23
2019-04-16T20:07:24.184Z,10.25
2019-04-16T20:09:53.272Z,10.51
2019-04-16T20:12:21.970Z,10.48
2019-04-16T20:14:50.637Z,10.50
2019-04-16T20:17:19.195Z,10.53
2019-04-16T20:20:00.554Z,10.47
2019-04-16T20:22:30.577Z,10.38
2019-04-16T20:24:59.389Z,10.20
2019-04-16T20:27:27.980Z,10.17
2019-04-16T20:29:56.731Z,10.22
2019-04-16T20:32:27.631Z,10.25
2019-04-16T20:34:56.194Z,10.41
2019-04-16T20:37:24.790Z,10.49
2019-04-16T20:39:53.639Z,10.53
2019-04-16T20:42:22.549Z,10.67
2019-04-16T20:44:51.540Z,10.67
2019-04-16T20:47:20.103Z,10.56
2019-04-16T20:49:49.141Z,10.46
2019-04-16T20:52:20.140Z,10.39
2019-04-16T20:54:52.187Z,10.38
2019-04-16T20:57:25.300Z,10.35
2019-04-16T20:59:51.483Z,10.13
2019-04-16T21:02:20.822Z,10.01
2019-04-16T21:04:49.423Z,10.03
2019-04-16T21:07:18.014Z,10.03
2019-04-16T21:09:49.708Z,9.98
2019-04-16T21:12:20.475Z,10.12
2019-04-16T21:14:50.893Z,9.94
2019-04-16T21:17:19.905Z,9.85
2019-04-16T21:19:48.551Z,9.70
2019-04-16T21:22:18.941Z,9.57
2019-04-16T21:24:48.293Z,9.57
2019-04-16T21:27:16.978Z,9.44
2019-04-16T21:29:46.215Z,9.50
2019-04-16T21:32:33.891Z,9.61
2019-04-16T21:35:09.670Z,9.61
2019-04-16T21:37:55.923Z,9.92
2019-04-16T21:40:29.043Z,9.94
2019-04-16T21:43:06.281Z,9.87
2019-04-16T21:45:31.900Z,9.83
2019-04-16T21:48:02.710Z,9.83
2019-04-16T21:50:31.368Z,9.80
2019-04-16T21:53:01.708Z,9.99
2019-04-16T21:55:32.779Z,10.14
2019-04-16T21:58:00.852Z,9.77
2019-04-16T22:01:04.249Z,9.62
2019-04-16T22:03:31.795Z,9.42
2019-04-16T22:06:02.631Z,9.24
2019-04-16T22:08:31.594Z,9.36
2019-04-16T22:11:00.180Z,9.42
2019-04-16T22:13:29.058Z,9.26
2019-04-16T22:15:58.702Z,9.17
2019-04-16T22:18:29.050Z,9.15
2019-04-16T22:20:57.754Z,9.12
2019-04-16T22:23:29.442Z,9.34
2019-04-16T22:26:01.737Z,9.45
2019-04-16T22:28:28.984Z,9.53
2019-04-16T22:30:57.597Z,9.49
2019-04-16T22:33:26.642Z,9.69
2019-04-16T22:35:55.216Z,9.62
2019-04-16T22:38:23.772Z,9.56
2019-04-16T22:40:57.242Z,9.58
2019-04-16T22:43:43.638Z,9.47
2019-04-16T22:46:20.193Z,9.47
2019-04-16T22:48:56.539Z,9.46
2019-04-16T22:51:25.811Z,9.24
2019-04-16T22:53:54.844Z,9.24
2019-04-16T22:56:31.641Z,9.06
2019-04-16T22:59:00.373Z,9.13
2019-04-16T23:01:30.240Z,9.48
2019-04-16T23:03:58.976Z,9.23
2019-04-16T23:06:27.602Z,9.23
2019-04-16T23:08:58.419Z,9.12
2019-04-16T23:11:26.974Z,9.20
2019-04-16T23:13:55.650Z,9.38
2019-04-16T23:16:25.584Z,9.38
2019-04-16T23:18:54.149Z,9.50
2019-04-16T23:21:22.848Z,9.51
2019-04-16T23:23:52.358Z,9.56
2019-04-16T23:26:21.063Z,9.62
2019-04-16T23:28:54.866Z,9.51
2019-04-16T23:31:25.589Z,9.52
2019-04-16T23:33:54.138Z,9.21
2019-04-16T23:36:22.722Z,8.62
2019-04-16T23:38:53.264Z,8.62
2019-04-16T23:41:21.828Z,8.55
2019-04-16T23:44:00.179Z,8.55
2019-04-16T23:46:55.045Z,9.68
2019-04-16T23:49:45.783Z,9.68
2019-04-16T23:52:23.152Z,9.54
2019-04-16T23:54:55.450Z,9.07
2019-04-16T23:57:53.664Z,9.07
